sensor_id;sensor_type;location;lat;lon;timestamp;P1;durP1;ratioP1;P2;durP2;ratioP2
79220;SDS011;68648;52.114;5.424;2023-06-22T00:00:52;11.25;;;4.22;;
79220;SDS011;68648;52.114;5.424;2023-06-22T00:03:20;9.90;;;4.55;;
79220;SDS011;68648;52.114;5.424;2023-06-22T00:05:48;10.40;;;4.43;;
79220;SDS011;68648;52.114;5.424;2023-06-22T00:08:15;8.45;;;3.40;;
79220;SDS011;68648;52.114;5.424;2023-06-22T00:10:43;6.75;;;2.90;;
79220;SDS011;68648;52.114;5.424;2023-06-22T00:13:11;7.82;;;3.03;;
79220;SDS011;68648;52.114;5.424;2023-06-22T00:15:39;6.40;;;2.60;;
79220;SDS011;68648;52.114;5.424;2023-06-22T00:18:08;8.15;;;3.53;;
79220;SDS011;68648;52.114;5.424;2023-06-22T00:20:35;7.07;;;2.55;;
79220;SDS011;68648;52.114;5.424;2023-06-22T00:23:06;6.90;;;2.38;;
79220;SDS011;68648;52.114;5.424;2023-06-22T00:25:36;7.28;;;2.95;;
79220;SDS011;68648;52.114;5.424;2023-06-22T00:28:06;7.22;;;3.35;;
79220;SDS011;68648;52.114;5.424;2023-06-22T00:30:36;7.85;;;3.38;;
79220;SDS011;68648;52.114;5.424;2023-06-22T00:33:03;8.00;;;3.42;;
79220;SDS011;68648;52.114;5.424;2023-06-22T00:35:30;6.88;;;3.35;;
79220;SDS011;68648;52.114;5.424;2023-06-22T00:37:57;8.50;;;4.07;;
79220;SDS011;68648;52.114;5.424;2023-06-22T00:40:30;7.43;;;3.25;;
79220;SDS011;68648;52.114;5.424;2023-06-22T00:42:58;7.80;;;3.10;;
79220;SDS011;68648;52.114;5.424;2023-06-22T00:45:25;9.32;;;4.03;;
79220;SDS011;68648;52.114;5.424;2023-06-22T00:47:53;9.10;;;3.60;;
79220;SDS011;68648;52.114;5.424;2023-06-22T00:50:22;8.25;;;3.35;;
79220;SDS011;68648;52.114;5.424;2023-06-22T00:52:51;9.73;;;3.60;;
79220;SDS011;68648;52.114;5.424;2023-06-22T00:55:22;8.98;;;3.90;;
79220;SDS011;68648;52.114;5.424;2023-06-22T00:57:49;9.02;;;3.60;;
79220;SDS011;68648;52.114;5.424;2023-06-22T01:00:16;7.47;;;2.85;;
79220;SDS011;68648;52.114;5.424;2023-06-22T01:02:46;9.63;;;3.90;;
79220;SDS011;68648;52.114;5.424;2023-06-22T01:05:13;7.75;;;3.65;;
79220;SDS011;68648;52.114;5.424;2023-06-22T01:18:50;8.32;;;3.28;;
79220;SDS011;68648;52.114;5.424;2023-06-22T01:21:20;7.88;;;3.33;;
79220;SDS011;68648;52.114;5.424;2023-06-22T01:24:11;6.22;;;2.63;;
79220;SDS011;68648;52.114;5.424;2023-06-22T01:29:19;8.68;;;3.53;;
79220;SDS011;68648;52.114;5.424;2023-06-22T01:31:49;8.77;;;3.60;;
79220;SDS011;68648;52.114;5.424;2023-06-22T01:34:17;7.72;;;3.92;;
79220;SDS011;68648;52.114;5.424;2023-06-22T01:36:45;8.32;;;3.60;;
79220;SDS011;68648;52.114;5.424;2023-06-22T01:39:12;9.18;;;4.20;;
79220;SDS011;68648;52.114;5.424;2023-06-22T01:41:40;7.72;;;3.70;;
79220;SDS011;68648;52.114;5.424;2023-06-22T01:44:09;8.88;;;3.97;;
79220;SDS011;68648;52.114;5.424;2023-06-22T01:46:36;9.88;;;4.20;;
79220;SDS011;68648;52.114;5.424;2023-06-22T01:49:03;7.95;;;3.92;;
79220;SDS011;68648;52.114;5.424;2023-06-22T01:51:30;4.25;;;1.48;;
79220;SDS011;68648;52.114;5.424;2023-06-22T01:53:58;4.93;;;1.77;;
79220;SDS011;68648;52.114;5.424;2023-06-22T01:56:25;8.15;;;3.85;;
79220;SDS011;68648;52.114;5.424;2023-06-22T01:59:02;11.10;;;5.05;;
79220;SDS011;68648;52.114;5.424;2023-06-22T02:01:44;10.02;;;4.95;;
79220;SDS011;68648;52.114;5.424;2023-06-22T02:04:26;8.75;;;4.15;;
79220;SDS011;68648;52.114;5.424;2023-06-22T02:06:58;11.85;;;5.22;;
79220;SDS011;68648;52.114;5.424;2023-06-22T02:09:26;9.38;;;4.95;;
79220;SDS011;68648;52.114;5.424;2023-06-22T02:11:56;10.95;;;5.20;;
79220;SDS011;68648;52.114;5.424;2023-06-22T02:14:24;10.88;;;4.18;;
79220;SDS011;68648;52.114;5.424;2023-06-22T02:16:51;8.45;;;3.58;;
79220;SDS011;68648;52.114;5.424;2023-06-22T02:19:22;7.65;;;3.60;;
79220;SDS011;68648;52.114;5.424;2023-06-22T02:21:49;8.52;;;3.15;;
79220;SDS011;68648;52.114;5.424;2023-06-22T02:24:18;7.97;;;3.60;;
79220;SDS011;68648;52.114;5.424;2023-06-22T02:26:45;9.88;;;3.88;;
79220;SDS011;68648;52.114;5.424;2023-06-22T02:29:12;6.88;;;3.22;;
79220;SDS011;68648;52.114;5.424;2023-06-22T02:31:39;12.77;;;4.28;;
79220;SDS011;68648;52.114;5.424;2023-06-22T02:34:06;8.70;;;3.78;;
79220;SDS011;68648;52.114;5.424;2023-06-22T02:36:33;8.55;;;3.40;;
79220;SDS011;68648;52.114;5.424;2023-06-22T02:39:00;7.85;;;3.17;;
79220;SDS011;68648;52.114;5.424;2023-06-22T02:41:28;7.00;;;2.70;;
79220;SDS011;68648;52.114;5.424;2023-06-22T02:43:54;7.53;;;3.17;;
79220;SDS011;68648;52.114;5.424;2023-06-22T02:46:21;7.85;;;3.03;;
79220;SDS011;68648;52.114;5.424;2023-06-22T02:48:48;9.00;;;3.40;;
79220;SDS011;68648;52.114;5.424;2023-06-22T02:51:15;6.70;;;2.75;;
79220;SDS011;68648;52.114;5.424;2023-06-22T02:53:41;8.05;;;2.50;;
79220;SDS011;68648;52.114;5.424;2023-06-22T02:56:11;8.05;;;3.35;;
79220;SDS011;68648;52.114;5.424;2023-06-22T02:58:39;6.53;;;2.80;;
79220;SDS011;68648;52.114;5.424;2023-06-22T03:01:06;7.28;;;2.72;;
79220;SDS011;68648;52.114;5.424;2023-06-22T03:03:32;8.55;;;2.72;;
79220;SDS011;68648;52.114;5.424;2023-06-22T03:05:59;6.30;;;2.35;;
79220;SDS011;68648;52.114;5.424;2023-06-22T03:08:29;7.00;;;2.83;;
79220;SDS011;68648;52.114;5.424;2023-06-22T03:10:55;6.97;;;2.55;;
79220;SDS011;68648;52.114;5.424;2023-06-22T03:13:22;6.95;;;2.92;;
79220;SDS011;68648;52.114;5.424;2023-06-22T03:15:49;6.00;;;2.30;;
79220;SDS011;68648;52.114;5.424;2023-06-22T03:18:17;7.57;;;2.95;;
79220;SDS011;68648;52.114;5.424;2023-06-22T03:20:44;7.57;;;2.90;;
79220;SDS011;68648;52.114;5.424;2023-06-22T03:23:11;8.23;;;3.00;;
79220;SDS011;68648;52.114;5.424;2023-06-22T03:25:37;5.68;;;2.30;;
79220;SDS011;68648;52.114;5.424;2023-06-22T03:28:04;5.72;;;2.30;;
79220;SDS011;68648;52.114;5.424;2023-06-22T03:30:31;6.68;;;2.72;;
79220;SDS011;68648;52.114;5.424;2023-06-22T03:32:58;3.88;;;1.10;;
79220;SDS011;68648;52.114;5.424;2023-06-22T03:35:25;7.65;;;3.00;;
79220;SDS011;68648;52.114;5.424;2023-06-22T03:37:51;6.47;;;2.83;;
79220;SDS011;68648;52.114;5.424;2023-06-22T03:40:18;11.25;;;3.88;;
79220;SDS011;68648;52.114;5.424;2023-06-22T03:42:45;8.35;;;3.92;;
79220;SDS011;68648;52.114;5.424;2023-06-22T03:45:15;9.88;;;4.60;;
79220;SDS011;68648;52.114;5.424;2023-06-22T03:47:41;10.50;;;4.78;;
79220;SDS011;68648;52.114;5.424;2023-06-22T03:50:08;10.70;;;4.82;;
79220;SDS011;68648;52.114;5.424;2023-06-22T03:52:36;9.60;;;3.97;;
79220;SDS011;68648;52.114;5.424;2023-06-22T03:55:02;8.90;;;2.92;;
79220;SDS011;68648;52.114;5.424;2023-06-22T03:57:29;5.07;;;1.50;;
79220;SDS011;68648;52.114;5.424;2023-06-22T03:59:56;6.32;;;2.80;;
79220;SDS011;68648;52.114;5.424;2023-06-22T04:02:24;9.85;;;4.03;;
79220;SDS011;68648;52.114;5.424;2023-06-22T04:04:52;13.88;;;6.22;;
79220;SDS011;68648;52.114;5.424;2023-06-22T04:07:19;14.57;;;6.60;;
79220;SDS011;68648;52.114;5.424;2023-06-22T04:09:45;15.90;;;6.75;;
79220;SDS011;68648;52.114;5.424;2023-06-22T04:12:12;13.45;;;6.32;;
79220;SDS011;68648;52.114;5.424;2023-06-22T04:14:39;14.00;;;6.78;;
79220;SDS011;68648;52.114;5.424;2023-06-22T04:17:05;15.35;;;6.50;;
79220;SDS011;68648;52.114;5.424;2023-06-22T04:19:32;15.45;;;7.03;;
79220;SDS011;68648;52.114;5.424;2023-06-22T04:21:59;13.32;;;6.03;;
79220;SDS011;68648;52.114;5.424;2023-06-22T04:24:25;14.27;;;6.60;;
79220;SDS011;68648;52.114;5.424;2023-06-22T04:26:52;13.65;;;6.63;;
79220;SDS011;68648;52.114;5.424;2023-06-22T04:29:21;16.42;;;7.07;;
79220;SDS011;68648;52.114;5.424;2023-06-22T04:31:58;14.70;;;8.00;;
79220;SDS011;68648;52.114;5.424;2023-06-22T04:34:29;14.07;;;7.18;;
79220;SDS011;68648;52.114;5.424;2023-06-22T04:36:56;13.02;;;6.97;;
79220;SDS011;68648;52.114;5.424;2023-06-22T04:39:22;14.90;;;7.13;;
79220;SDS011;68648;52.114;5.424;2023-06-22T04:41:50;15.80;;;9.02;;
79220;SDS011;68648;52.114;5.424;2023-06-22T04:44:17;12.48;;;6.43;;
79220;SDS011;68648;52.114;5.424;2023-06-22T04:46:51;15.05;;;8.10;;
79220;SDS011;68648;52.114;5.424;2023-06-22T04:49:26;15.93;;;8.40;;
79220;SDS011;68648;52.114;5.424;2023-06-22T04:52:00;18.88;;;8.63;;
79220;SDS011;68648;52.114;5.424;2023-06-22T04:54:28;16.00;;;8.27;;
79220;SDS011;68648;52.114;5.424;2023-06-22T04:56:55;14.43;;;7.55;;
79220;SDS011;68648;52.114;5.424;2023-06-22T04:59:29;16.27;;;8.00;;
79220;SDS011;68648;52.114;5.424;2023-06-22T05:01:57;17.25;;;8.13;;
79220;SDS011;68648;52.114;5.424;2023-06-22T05:04:25;15.32;;;7.82;;
79220;SDS011;68648;52.114;5.424;2023-06-22T05:06:54;16.88;;;9.00;;
79220;SDS011;68648;52.114;5.424;2023-06-22T05:09:21;16.08;;;8.70;;
79220;SDS011;68648;52.114;5.424;2023-06-22T05:11:48;16.67;;;8.98;;
79220;SDS011;68648;52.114;5.424;2023-06-22T05:14:15;17.25;;;9.30;;
79220;SDS011;68648;52.114;5.424;2023-06-22T05:16:41;19.98;;;9.90;;
79220;SDS011;68648;52.114;5.424;2023-06-22T05:19:09;19.80;;;10.48;;
79220;SDS011;68648;52.114;5.424;2023-06-22T05:21:35;19.60;;;11.48;;
79220;SDS011;68648;52.114;5.424;2023-06-22T05:24:02;24.42;;;12.30;;
79220;SDS011;68648;52.114;5.424;2023-06-22T05:26:30;21.50;;;11.50;;
79220;SDS011;68648;52.114;5.424;2023-06-22T05:28:58;20.00;;;11.60;;
79220;SDS011;68648;52.114;5.424;2023-06-22T05:31:26;20.10;;;11.93;;
79220;SDS011;68648;52.114;5.424;2023-06-22T05:33:54;24.33;;;11.75;;
79220;SDS011;68648;52.114;5.424;2023-06-22T05:36:21;21.02;;;11.68;;
79220;SDS011;68648;52.114;5.424;2023-06-22T05:38:51;20.65;;;12.75;;
79220;SDS011;68648;52.114;5.424;2023-06-22T05:41:19;26.15;;;12.10;;
79220;SDS011;68648;52.114;5.424;2023-06-22T05:43:47;23.38;;;13.55;;
79220;SDS011;68648;52.114;5.424;2023-06-22T05:49:30;21.00;;;12.15;;
79220;SDS011;68648;52.114;5.424;2023-06-22T05:51:59;22.27;;;12.70;;
79220;SDS011;68648;52.114;5.424;2023-06-22T05:54:29;24.25;;;14.25;;
79220;SDS011;68648;52.114;5.424;2023-06-22T05:56:56;24.70;;;13.45;;
79220;SDS011;68648;52.114;5.424;2023-06-22T05:59:23;23.40;;;13.23;;
79220;SDS011;68648;52.114;5.424;2023-06-22T06:01:50;24.13;;;12.77;;
79220;SDS011;68648;52.114;5.424;2023-06-22T06:04:17;25.27;;;14.63;;
79220;SDS011;68648;52.114;5.424;2023-06-22T06:06:45;26.85;;;14.60;;
79220;SDS011;68648;52.114;5.424;2023-06-22T06:09:16;24.83;;;14.88;;
79220;SDS011;68648;52.114;5.424;2023-06-22T06:11:43;26.23;;;13.93;;
79220;SDS011;68648;52.114;5.424;2023-06-22T06:14:10;24.75;;;13.65;;
79220;SDS011;68648;52.114;5.424;2023-06-22T06:16:36;22.70;;;13.45;;
79220;SDS011;68648;52.114;5.424;2023-06-22T06:19:03;31.88;;;22.70;;
79220;SDS011;68648;52.114;5.424;2023-06-22T06:21:30;22.63;;;13.82;;
79220;SDS011;68648;52.114;5.424;2023-06-22T06:23:57;24.48;;;14.95;;
79220;SDS011;68648;52.114;5.424;2023-06-22T06:26:24;28.25;;;15.45;;
79220;SDS011;68648;52.114;5.424;2023-06-22T06:28:56;28.55;;;13.60;;
79220;SDS011;68648;52.114;5.424;2023-06-22T06:31:23;21.45;;;13.60;;
79220;SDS011;68648;52.114;5.424;2023-06-22T06:33:50;23.50;;;14.02;;
79220;SDS011;68648;52.114;5.424;2023-06-22T06:36:17;23.70;;;14.55;;
79220;SDS011;68648;52.114;5.424;2023-06-22T06:38:47;22.65;;;14.77;;
79220;SDS011;68648;52.114;5.424;2023-06-22T06:41:14;23.45;;;13.77;;
79220;SDS011;68648;52.114;5.424;2023-06-22T06:43:41;26.05;;;15.23;;
79220;SDS011;68648;52.114;5.424;2023-06-22T06:46:11;24.00;;;14.80;;
79220;SDS011;68648;52.114;5.424;2023-06-22T06:48:38;22.60;;;14.88;;
79220;SDS011;68648;52.114;5.424;2023-06-22T06:51:06;22.77;;;13.80;;
79220;SDS011;68648;52.114;5.424;2023-06-22T06:53:36;23.75;;;14.13;;
79220;SDS011;68648;52.114;5.424;2023-06-22T06:56:04;24.30;;;14.02;;
79220;SDS011;68648;52.114;5.424;2023-06-22T06:58:31;23.15;;;14.40;;
79220;SDS011;68648;52.114;5.424;2023-06-22T07:00:58;24.98;;;14.27;;
79220;SDS011;68648;52.114;5.424;2023-06-22T07:03:25;24.08;;;13.43;;
79220;SDS011;68648;52.114;5.424;2023-06-22T07:05:52;26.40;;;14.00;;
79220;SDS011;68648;52.114;5.424;2023-06-22T07:08:18;20.92;;;13.43;;
79220;SDS011;68648;52.114;5.424;2023-06-22T07:10:45;23.67;;;13.07;;
79220;SDS011;68648;52.114;5.424;2023-06-22T07:13:11;24.25;;;12.13;;
79220;SDS011;68648;52.114;5.424;2023-06-22T07:15:38;18.98;;;11.43;;
79220;SDS011;68648;52.114;5.424;2023-06-22T07:18:04;21.40;;;12.18;;
79220;SDS011;68648;52.114;5.424;2023-06-22T07:20:31;17.73;;;11.80;;
79220;SDS011;68648;52.114;5.424;2023-06-22T07:22:58;21.73;;;11.20;;
79220;SDS011;68648;52.114;5.424;2023-06-22T07:25:25;20.17;;;12.02;;
79220;SDS011;68648;52.114;5.424;2023-06-22T07:28:02;22.20;;;12.38;;
79220;SDS011;68648;52.114;5.424;2023-06-22T07:30:31;20.27;;;11.18;;
79220;SDS011;68648;52.114;5.424;2023-06-22T07:33:00;19.35;;;10.85;;
79220;SDS011;68648;52.114;5.424;2023-06-22T07:35:31;19.50;;;11.10;;
79220;SDS011;68648;52.114;5.424;2023-06-22T07:37:58;18.63;;;10.50;;
79220;SDS011;68648;52.114;5.424;2023-06-22T07:40:27;19.23;;;10.98;;
79220;SDS011;68648;52.114;5.424;2023-06-22T07:42:54;30.75;;;12.57;;
79220;SDS011;68648;52.114;5.424;2023-06-22T07:45:21;18.75;;;11.35;;
79220;SDS011;68648;52.114;5.424;2023-06-22T07:47:47;17.83;;;10.85;;
79220;SDS011;68648;52.114;5.424;2023-06-22T07:50:14;16.77;;;11.27;;
79220;SDS011;68648;52.114;5.424;2023-06-22T07:52:41;18.75;;;10.15;;
79220;SDS011;68648;52.114;5.424;2023-06-22T07:55:07;17.17;;;10.73;;
79220;SDS011;68648;52.114;5.424;2023-06-22T07:57:34;17.88;;;9.57;;
79220;SDS011;68648;52.114;5.424;2023-06-22T08:00:03;17.95;;;10.00;;
79220;SDS011;68648;52.114;5.424;2023-06-22T08:02:39;18.30;;;10.35;;
79220;SDS011;68648;52.114;5.424;2023-06-22T08:05:10;16.35;;;10.50;;
79220;SDS011;68648;52.114;5.424;2023-06-22T08:07:58;14.98;;;8.35;;
79220;SDS011;68648;52.114;5.424;2023-06-22T08:10:24;17.50;;;9.90;;
79220;SDS011;68648;52.114;5.424;2023-06-22T08:12:52;16.20;;;9.50;;
79220;SDS011;68648;52.114;5.424;2023-06-22T08:15:18;15.15;;;8.48;;
79220;SDS011;68648;52.114;5.424;2023-06-22T08:17:46;15.82;;;8.88;;
79220;SDS011;68648;52.114;5.424;2023-06-22T08:20:13;14.75;;;10.60;;
79220;SDS011;68648;52.114;5.424;2023-06-22T08:22:41;16.75;;;8.95;;
79220;SDS011;68648;52.114;5.424;2023-06-22T08:25:10;14.55;;;8.85;;
79220;SDS011;68648;52.114;5.424;2023-06-22T08:27:37;16.30;;;8.73;;
79220;SDS011;68648;52.114;5.424;2023-06-22T08:30:04;16.38;;;8.80;;
79220;SDS011;68648;52.114;5.424;2023-06-22T08:32:31;14.70;;;8.95;;
79220;SDS011;68648;52.114;5.424;2023-06-22T08:34:59;16.58;;;9.20;;
79220;SDS011;68648;52.114;5.424;2023-06-22T08:37:27;13.98;;;8.32;;
79220;SDS011;68648;52.114;5.424;2023-06-22T08:39:58;12.95;;;7.68;;
79220;SDS011;68648;52.114;5.424;2023-06-22T08:42:27;12.88;;;7.10;;
79220;SDS011;68648;52.114;5.424;2023-06-22T08:44:54;16.15;;;7.57;;
79220;SDS011;68648;52.114;5.424;2023-06-22T08:47:21;12.85;;;7.88;;
79220;SDS011;68648;52.114;5.424;2023-06-22T08:49:49;12.35;;;6.22;;
79220;SDS011;68648;52.114;5.424;2023-06-22T08:52:17;12.18;;;7.25;;
79220;SDS011;68648;52.114;5.424;2023-06-22T08:54:44;12.02;;;6.43;;
79220;SDS011;68648;52.114;5.424;2023-06-22T08:57:11;11.02;;;5.82;;
79220;SDS011;68648;52.114;5.424;2023-06-22T08:59:37;10.48;;;5.90;;
79220;SDS011;68648;52.114;5.424;2023-06-22T09:02:04;10.32;;;5.25;;
79220;SDS011;68648;52.114;5.424;2023-06-22T09:04:31;10.95;;;6.47;;
79220;SDS011;68648;52.114;5.424;2023-06-22T09:07:01;10.40;;;5.95;;
79220;SDS011;68648;52.114;5.424;2023-06-22T09:09:28;10.90;;;4.95;;
79220;SDS011;68648;52.114;5.424;2023-06-22T09:11:55;10.93;;;5.75;;
79220;SDS011;68648;52.114;5.424;2023-06-22T09:14:24;9.38;;;5.30;;
79220;SDS011;68648;52.114;5.424;2023-06-22T09:16:50;11.15;;;5.07;;
79220;SDS011;68648;52.114;5.424;2023-06-22T09:19:17;9.48;;;4.82;;
79220;SDS011;68648;52.114;5.424;2023-06-22T09:21:44;9.48;;;4.45;;
79220;SDS011;68648;52.114;5.424;2023-06-22T09:24:10;7.72;;;4.18;;
79220;SDS011;68648;52.114;5.424;2023-06-22T09:26:37;8.50;;;3.47;;
79220;SDS011;68648;52.114;5.424;2023-06-22T09:29:06;7.45;;;4.55;;
79220;SDS011;68648;52.114;5.424;2023-06-22T09:31:33;7.78;;;4.00;;
79220;SDS011;68648;52.114;5.424;2023-06-22T09:33:59;8.40;;;3.70;;
79220;SDS011;68648;52.114;5.424;2023-06-22T09:36:26;8.75;;;3.80;;
79220;SDS011;68648;52.114;5.424;2023-06-22T09:38:53;7.53;;;3.90;;
79220;SDS011;68648;52.114;5.424;2023-06-22T09:41:24;10.25;;;5.72;;
79220;SDS011;68648;52.114;5.424;2023-06-22T09:43:51;7.82;;;3.88;;
79220;SDS011;68648;52.114;5.424;2023-06-22T09:46:22;6.88;;;3.88;;
79220;SDS011;68648;52.114;5.424;2023-06-22T09:49:05;8.55;;;4.63;;
79220;SDS011;68648;52.114;5.424;2023-06-22T09:51:31;11.20;;;4.50;;
79220;SDS011;68648;52.114;5.424;2023-06-22T09:54:00;9.05;;;4.70;;
79220;SDS011;68648;52.114;5.424;2023-06-22T09:56:27;9.27;;;5.43;;
79220;SDS011;68648;52.114;5.424;2023-06-22T09:58:55;9.73;;;5.07;;
79220;SDS011;68648;52.114;5.424;2023-06-22T10:01:38;10.18;;;5.75;;
79220;SDS011;68648;52.114;5.424;2023-06-22T10:04:05;9.88;;;5.60;;
79220;SDS011;68648;52.114;5.424;2023-06-22T10:06:32;8.77;;;5.25;;
79220;SDS011;68648;52.114;5.424;2023-06-22T10:08:59;9.60;;;5.30;;
79220;SDS011;68648;52.114;5.424;2023-06-22T10:11:25;9.32;;;4.63;;
79220;SDS011;68648;52.114;5.424;2023-06-22T10:13:56;10.75;;;5.05;;
79220;SDS011;68648;52.114;5.424;2023-06-22T10:16:24;9.13;;;5.07;;
79220;SDS011;68648;52.114;5.424;2023-06-22T10:18:57;9.50;;;5.05;;
79220;SDS011;68648;52.114;5.424;2023-06-22T10:21:23;8.40;;;4.22;;
79220;SDS011;68648;52.114;5.424;2023-06-22T10:23:50;9.73;;;3.72;;
79220;SDS011;68648;52.114;5.424;2023-06-22T10:26:17;6.82;;;3.47;;
79220;SDS011;68648;52.114;5.424;2023-06-22T10:28:43;7.10;;;3.10;;
79220;SDS011;68648;52.114;5.424;2023-06-22T10:31:10;6.72;;;3.00;;
79220;SDS011;68648;52.114;5.424;2023-06-22T10:33:36;8.85;;;4.45;;
79220;SDS011;68648;52.114;5.424;2023-06-22T10:36:04;8.10;;;3.50;;
79220;SDS011;68648;52.114;5.424;2023-06-22T10:38:31;8.07;;;3.60;;
79220;SDS011;68648;52.114;5.424;2023-06-22T10:40:58;10.13;;;3.25;;
79220;SDS011;68648;52.114;5.424;2023-06-22T10:43:24;8.73;;;3.42;;
79220;SDS011;68648;52.114;5.424;2023-06-22T10:45:51;6.75;;;3.30;;
79220;SDS011;68648;52.114;5.424;2023-06-22T10:48:17;8.02;;;3.65;;
79220;SDS011;68648;52.114;5.424;2023-06-22T10:50:44;7.45;;;3.58;;
79220;SDS011;68648;52.114;5.424;2023-06-22T10:53:10;10.10;;;4.25;;
79220;SDS011;68648;52.114;5.424;2023-06-22T10:55:37;8.48;;;3.92;;
79220;SDS011;68648;52.114;5.424;2023-06-22T10:58:21;9.02;;;4.07;;
79220;SDS011;68648;52.114;5.424;2023-06-22T11:00:47;7.82;;;4.10;;
79220;SDS011;68648;52.114;5.424;2023-06-22T11:03:14;9.55;;;4.18;;
79220;SDS011;68648;52.114;5.424;2023-06-22T11:05:41;8.15;;;3.70;;
79220;SDS011;68648;52.114;5.424;2023-06-22T11:08:11;7.28;;;3.60;;
79220;SDS011;68648;52.114;5.424;2023-06-22T11:10:38;9.73;;;4.00;;
79220;SDS011;68648;52.114;5.424;2023-06-22T11:13:05;8.27;;;4.18;;
79220;SDS011;68648;52.114;5.424;2023-06-22T11:15:37;7.80;;;4.20;;
79220;SDS011;68648;52.114;5.424;2023-06-22T11:18:05;9.32;;;4.05;;
79220;SDS011;68648;52.114;5.424;2023-06-22T11:20:33;8.85;;;5.32;;
79220;SDS011;68648;52.114;5.424;2023-06-22T11:23:05;12.27;;;5.13;;
79220;SDS011;68648;52.114;5.424;2023-06-22T11:25:34;9.93;;;5.00;;
79220;SDS011;68648;52.114;5.424;2023-06-22T11:28:02;10.77;;;5.28;;
79220;SDS011;68648;52.114;5.424;2023-06-22T11:30:29;8.90;;;5.03;;
79220;SDS011;68648;52.114;5.424;2023-06-22T11:32:58;8.70;;;4.65;;
79220;SDS011;68648;52.114;5.424;2023-06-22T11:35:25;11.35;;;4.60;;
79220;SDS011;68648;52.114;5.424;2023-06-22T11:37:52;8.63;;;4.40;;
79220;SDS011;68648;52.114;5.424;2023-06-22T11:40:19;9.52;;;4.25;;
79220;SDS011;68648;52.114;5.424;2023-06-22T11:42:45;8.85;;;4.03;;
79220;SDS011;68648;52.114;5.424;2023-06-22T11:45:12;10.98;;;4.78;;
79220;SDS011;68648;52.114;5.424;2023-06-22T11:47:39;7.60;;;4.13;;
79220;SDS011;68648;52.114;5.424;2023-06-22T11:50:06;9.68;;;4.10;;
79220;SDS011;68648;52.114;5.424;2023-06-22T11:52:33;8.57;;;3.97;;
79220;SDS011;68648;52.114;5.424;2023-06-22T11:55:02;10.65;;;4.25;;
79220;SDS011;68648;52.114;5.424;2023-06-22T11:57:35;10.23;;;4.40;;
79220;SDS011;68648;52.114;5.424;2023-06-22T12:00:05;9.73;;;5.45;;
79220;SDS011;68648;52.114;5.424;2023-06-22T12:02:40;11.75;;;4.65;;
79220;SDS011;68648;52.114;5.424;2023-06-22T12:05:07;11.20;;;5.00;;
79220;SDS011;68648;52.114;5.424;2023-06-22T12:07:34;9.02;;;4.53;;
79220;SDS011;68648;52.114;5.424;2023-06-22T12:10:01;10.52;;;5.80;;
79220;SDS011;68648;52.114;5.424;2023-06-22T12:12:28;11.93;;;6.30;;
79220;SDS011;68648;52.114;5.424;2023-06-22T12:14:54;14.57;;;6.70;;
79220;SDS011;68648;52.114;5.424;2023-06-22T12:17:21;13.07;;;6.30;;
79220;SDS011;68648;52.114;5.424;2023-06-22T12:19:48;10.95;;;6.78;;
79220;SDS011;68648;52.114;5.424;2023-06-22T12:22:16;13.13;;;6.60;;
79220;SDS011;68648;52.114;5.424;2023-06-22T12:24:42;15.70;;;8.98;;
79220;SDS011;68648;52.114;5.424;2023-06-22T12:27:09;13.38;;;7.57;;
79220;SDS011;68648;52.114;5.424;2023-06-22T12:29:36;13.27;;;7.38;;
79220;SDS011;68648;52.114;5.424;2023-06-22T12:32:03;15.45;;;7.70;;
79220;SDS011;68648;52.114;5.424;2023-06-22T12:34:30;14.73;;;8.63;;
79220;SDS011;68648;52.114;5.424;2023-06-22T12:36:56;15.57;;;8.23;;
79220;SDS011;68648;52.114;5.424;2023-06-22T12:39:23;16.60;;;7.53;;
79220;SDS011;68648;52.114;5.424;2023-06-22T12:41:50;15.07;;;8.23;;
79220;SDS011;68648;52.114;5.424;2023-06-22T12:44:17;13.88;;;7.50;;
79220;SDS011;68648;52.114;5.424;2023-06-22T12:46:43;13.50;;;8.20;;
79220;SDS011;68648;52.114;5.424;2023-06-22T12:49:10;13.45;;;6.90;;
79220;SDS011;68648;52.114;5.424;2023-06-22T12:51:39;14.32;;;7.97;;
79220;SDS011;68648;52.114;5.424;2023-06-22T12:54:08;11.00;;;7.32;;
79220;SDS011;68648;52.114;5.424;2023-06-22T12:56:35;12.15;;;7.43;;
79220;SDS011;68648;52.114;5.424;2023-06-22T12:59:02;12.35;;;7.22;;
79220;SDS011;68648;52.114;5.424;2023-06-22T13:01:29;13.57;;;6.97;;
79220;SDS011;68648;52.114;5.424;2023-06-22T13:03:57;12.63;;;7.93;;
79220;SDS011;68648;52.114;5.424;2023-06-22T13:06:24;13.27;;;7.95;;
79220;SDS011;68648;52.114;5.424;2023-06-22T13:08:51;14.10;;;8.15;;
79220;SDS011;68648;52.114;5.424;2023-06-22T13:11:20;11.57;;;7.72;;
79220;SDS011;68648;52.114;5.424;2023-06-22T13:13:47;14.55;;;8.00;;
79220;SDS011;68648;52.114;5.424;2023-06-22T13:16:14;15.27;;;8.00;;
79220;SDS011;68648;52.114;5.424;2023-06-22T13:18:40;12.35;;;7.88;;
79220;SDS011;68648;52.114;5.424;2023-06-22T13:21:07;14.27;;;8.27;;
79220;SDS011;68648;52.114;5.424;2023-06-22T13:23:33;14.73;;;8.75;;
79220;SDS011;68648;52.114;5.424;2023-06-22T13:26:00;14.90;;;8.35;;
79220;SDS011;68648;52.114;5.424;2023-06-22T13:28:27;14.52;;;8.25;;
79220;SDS011;68648;52.114;5.424;2023-06-22T13:30:55;14.73;;;7.88;;
79220;SDS011;68648;52.114;5.424;2023-06-22T13:33:22;14.45;;;8.77;;
79220;SDS011;68648;52.114;5.424;2023-06-22T13:35:48;14.27;;;8.38;;
79220;SDS011;68648;52.114;5.424;2023-06-22T13:38:15;16.52;;;10.57;;
79220;SDS011;68648;52.114;5.424;2023-06-22T13:40:46;15.60;;;8.85;;
79220;SDS011;68648;52.114;5.424;2023-06-22T13:43:13;14.80;;;8.88;;
79220;SDS011;68648;52.114;5.424;2023-06-22T13:45:40;13.52;;;7.50;;
79220;SDS011;68648;52.114;5.424;2023-06-22T13:48:12;12.27;;;8.15;;
79220;SDS011;68648;52.114;5.424;2023-06-22T13:50:39;15.25;;;7.75;;
79220;SDS011;68648;52.114;5.424;2023-06-22T13:53:05;14.00;;;8.43;;
79220;SDS011;68648;52.114;5.424;2023-06-22T13:55:33;14.52;;;8.02;;
79220;SDS011;68648;52.114;5.424;2023-06-22T13:58:01;14.05;;;8.32;;
79220;SDS011;68648;52.114;5.424;2023-06-22T14:00:28;14.52;;;8.23;;
79220;SDS011;68648;52.114;5.424;2023-06-22T14:02:56;12.73;;;7.63;;
79220;SDS011;68648;52.114;5.424;2023-06-22T14:05:23;13.30;;;7.90;;
79220;SDS011;68648;52.114;5.424;2023-06-22T14:07:50;15.23;;;8.15;;
79220;SDS011;68648;52.114;5.424;2023-06-22T14:10:16;17.70;;;8.07;;
79220;SDS011;68648;52.114;5.424;2023-06-22T14:12:43;18.88;;;9.27;;
79220;SDS011;68648;52.114;5.424;2023-06-22T14:15:11;16.10;;;9.45;;
79220;SDS011;68648;52.114;5.424;2023-06-22T14:17:37;14.93;;;8.73;;
79220;SDS011;68648;52.114;5.424;2023-06-22T14:20:04;14.00;;;8.52;;
79220;SDS011;68648;52.114;5.424;2023-06-22T14:22:33;15.00;;;8.70;;
79220;SDS011;68648;52.114;5.424;2023-06-22T14:25:01;15.02;;;9.32;;
79220;SDS011;68648;52.114;5.424;2023-06-22T14:27:28;14.52;;;9.02;;
79220;SDS011;68648;52.114;5.424;2023-06-22T14:29:54;15.20;;;8.80;;
79220;SDS011;68648;52.114;5.424;2023-06-22T14:32:21;14.88;;;8.70;;
79220;SDS011;68648;52.114;5.424;2023-06-22T14:34:48;13.90;;;9.05;;
79220;SDS011;68648;52.114;5.424;2023-06-22T14:37:16;13.35;;;8.43;;
79220;SDS011;68648;52.114;5.424;2023-06-22T14:39:42;19.38;;;9.35;;
79220;SDS011;68648;52.114;5.424;2023-06-22T14:42:09;16.13;;;9.27;;
79220;SDS011;68648;52.114;5.424;2023-06-22T14:44:35;17.63;;;9.80;;
79220;SDS011;68648;52.114;5.424;2023-06-22T14:47:02;13.80;;;8.88;;
79220;SDS011;68648;52.114;5.424;2023-06-22T14:49:30;18.05;;;8.75;;
79220;SDS011;68648;52.114;5.424;2023-06-22T14:51:56;16.70;;;9.82;;
79220;SDS011;68648;52.114;5.424;2023-06-22T14:54:23;16.10;;;9.93;;
79220;SDS011;68648;52.114;5.424;2023-06-22T14:56:50;17.42;;;9.43;;
79220;SDS011;68648;52.114;5.424;2023-06-22T14:59:16;13.73;;;7.75;;